Time;durP1;ratioP1;P1;durP2;ratioP2;P2;SDS_P1;SDS_P2;PMS_P1;PMS_P2;Temp;Humidity;BMP_temperature;BMP_pressure;BME280_temperature;BME280_humidity;BME280_pressure;Samples;Min_cycle;Max_cycle;Signal;HPM_P1;HPM_P2
2021/06/29 00:00:07;;;;;;;4.18;2.95;;;22.40;80.10;;;;;;5105915;27;27379;-57
2021/06/29 00:03:06;;;;;;;5.03;3.35;;;22.30;80.00;;;;;;5106244;28;27776;-57
2021/06/29 00:05:50;;;;;;;3.30;2.78;;;22.30;81.10;;;;;;5102910;28;27415;-57
2021/06/29 00:08:35;;;;;;;4.88;2.85;;;22.30;80.50;;;;;;5106764;28;26949;-59
2021/06/29 00:11:20;;;;;;;5.38;3.03;;;22.30;79.80;;;;;;5106647;28;27487;-57
2021/06/29 00:14:04;;;;;;;6.68;3.00;;;22.30;80.30;;;;;;5106835;28;27391;-57
2021/06/29 00:16:49;;;;;;;2.80;2.60;;;22.30;79.60;;;;;;5105808;28;27439;-57
2021/06/29 00:19:34;;;;;;;6.32;3.17;;;22.30;80.50;;;;;;5102380;28;27551;-57
2021/06/29 00:22:18;;;;;;;3.33;3.03;;;22.30;80.90;;;;;;5104714;28;27497;-57
2021/06/29 00:25:03;;;;;;;3.15;2.85;;;22.30;80.30;;;;;;5106706;28;27437;-58
2021/06/29 00:27:48;;;;;;;4.90;2.67;;;22.30;80.70;;;;;;5103320;28;27419;-57
2021/06/29 00:30:32;;;;;;;5.72;3.03;;;22.30;79.70;;;;;;5106856;28;27566;-57
2021/06/29 00:33:17;;;;;;;5.53;3.20;;;22.30;79.90;;;;;;5106429;28;27346;-57
2021/06/29 00:36:01;;;;;;;3.08;2.47;;;22.30;80.00;;;;;;5106558;28;27323;-57
2021/06/29 00:38:46;;;;;;;4.00;3.38;;;22.20;79.70;;;;;;5106397;28;27340;-58
2021/06/29 00:41:30;;;;;;;4.50;3.63;;;22.30;80.40;;;;;;5105523;28;27396;-57
2021/06/29 00:44:19;;;;;;;3.55;3.25;;;22.30;80.40;;;;;;5106129;28;27340;-57
2021/06/29 00:47:09;;;;;;;4.75;2.70;;;22.20;79.70;;;;;;5106132;28;27483;-57
2021/06/29 00:49:53;;;;;;;4.55;3.50;;;22.30;80.20;;;;;;5103747;28;27401;-57
2021/06/29 00:52:39;;;;;;;3.03;2.72;;;22.20;80.40;;;;;;5106301;28;27300;-57
2021/06/29 00:55:24;;;;;;;4.93;3.22;;;22.20;80.40;;;;;;5106260;28;27980;-57
2021/06/29 00:58:09;;;;;;;3.60;2.72;;;22.20;79.40;;;;;;5105813;28;27396;-57
2021/06/29 01:00:54;;;;;;;5.50;2.83;;;22.20;80.10;;;;;;5106241;28;27433;-57
2021/06/29 01:03:38;;;;;;;4.57;3.35;;;22.20;79.70;;;;;;5105278;28;27340;-57
2021/06/29 01:06:23;;;;;;;5.68;2.78;;;22.20;79.80;;;;;;5106083;28;27918;-57
2021/06/29 01:09:08;;;;;;;3.90;3.45;;;22.10;79.30;;;;;;5105970;28;27416;-57
2021/06/29 01:11:52;;;;;;;3.78;2.83;;;22.20;79.50;;;;;;5105236;28;27411;-57
2021/06/29 01:14:36;;;;;;;5.32;3.47;;;22.10;79.30;;;;;;5101553;28;27485;-57
2021/06/29 01:17:22;;;;;;;4.93;3.03;;;22.10;81.10;;;;;;5105003;28;27444;-57
2021/06/29 01:20:15;;;;;;;3.63;3.20;;;22.10;80.00;;;;;;5105748;28;27411;-57
2021/06/29 01:23:09;;;;;;;5.20;3.45;;;22.10;80.40;;;;;;5105895;28;27473;-57
2021/06/29 01:26:24;;;;;;;5.60;3.17;;;22.10;81.60;;;;;;5105050;28;27474;-57
2021/06/29 01:29:08;;;;;;;5.15;3.53;;;22.00;80.60;;;;;;5105415;28;27474;-57
2021/06/29 01:31:53;;;;;;;6.65;4.28;;;22.00;79.60;;;;;;5102389;28;27497;-58
2021/06/29 01:34:38;;;;;;;3.65;3.13;;;22.00;80.20;;;;;;5105770;28;27404;-57
2021/06/29 01:37:23;;;;;;;5.53;3.20;;;22.00;80.10;;;;;;5105423;28;27321;-57
2021/06/29 01:40:12;;;;;;;4.72;2.90;;;22.00;80.40;;;;;;5101549;28;27387;-57
2021/06/29 01:42:59;;;;;;;3.58;3.28;;;22.00;81.00;;;;;;5104515;28;27470;-58
2021/06/29 01:45:47;;;;;;;5.75;3.30;;;22.00;81.10;;;;;;5104947;28;27415;-57
2021/06/29 01:48:32;;;;;;;3.03;2.63;;;21.90;80.10;;;;;;5105379;28;27378;-57
2021/06/29 01:51:16;;;;;;;3.40;2.63;;;21.90;79.90;;;;;;5086619;28;27806;-57
2021/06/29 01:54:01;;;;;;;6.82;2.80;;;22.00;81.40;;;;;;5105341;28;27340;-57
2021/06/29 01:56:46;;;;;;;3.58;2.63;;;22.00;80.10;;;;;;5105379;28;27328;-58
2021/06/29 01:59:31;;;;;;;5.18;3.38;;;21.90;80.80;;;;;;5104790;28;27339;-58
2021/06/29 02:02:16;;;;;;;4.63;2.80;;;21.90;80.20;;;;;;5104195;28;27402;-58
2021/06/29 02:05:01;;;;;;;5.43;3.20;;;21.90;79.60;;;;;;5101658;28;27516;-57
2021/06/29 02:07:45;;;;;;;6.07;2.75;;;21.90;79.90;;;;;;5101652;28;27342;-59
2021/06/29 02:10:30;;;;;;;5.70;3.25;;;21.90;80.00;;;;;;5104757;28;27329;-58
2021/06/29 02:13:14;;;;;;;3.38;3.08;;;21.90;80.40;;;;;;5104813;28;27807;-58
2021/06/29 02:16:00;;;;;;;4.95;3.35;;;21.90;80.60;;;;;;5104119;28;27470;-57
2021/06/29 02:18:45;;;;;;;5.18;2.83;;;21.90;80.50;;;;;;5104807;28;27404;-58
2021/06/29 02:21:30;;;;;;;6.57;2.90;;;21.90;79.80;;;;;;5104162;27;27336;-57
2021/06/29 02:24:14;;;;;;;4.88;2.60;;;21.90;79.60;;;;;;5104910;28;27374;-60
2021/06/29 02:26:59;;;;;;;3.03;2.75;;;21.90;80.50;;;;;;5100615;28;27390;-58
2021/06/29 02:29:43;;;;;;;6.95;3.15;;;21.80;80.00;;;;;;5104654;28;27389;-58
2021/06/29 02:32:28;;;;;;;3.60;2.90;;;21.80;80.10;;;;;;5104594;28;27426;-58
2021/06/29 02:35:12;;;;;;;10.80;3.50;;;21.80;79.90;;;;;;5104804;28;27465;-58
2021/06/29 02:37:57;;;;;;;3.90;2.58;;;21.80;81.10;;;;;;5104496;28;27465;-58
2021/06/29 02:40:42;;;;;;;3.63;2.90;;;21.80;80.40;;;;;;5103537;28;27521;-58
2021/06/29 02:43:26;;;;;;;6.63;2.47;;;21.80;79.50;;;;;;5103866;28;27488;-58
2021/06/29 02:46:10;;;;;;;4.60;2.67;;;21.80;79.90;;;;;;5104741;28;27421;-58
2021/06/29 02:48:57;;;;;;;4.57;3.25;;;21.80;80.50;;;;;;5103543;28;27485;-58
2021/06/29 02:51:41;;;;;;;4.93;2.83;;;21.80;79.60;;;;;;5104585;28;27472;-58
2021/06/29 02:54:26;;;;;;;3.65;2.47;;;21.80;79.60;;;;;;5104512;28;27447;-58
2021/06/29 02:57:10;;;;;;;3.92;2.58;;;21.80;79.70;;;;;;5104242;28;27450;-58
2021/06/29 02:59:55;;;;;;;3.60;2.70;;;21.80;79.80;;;;;;5104054;28;27412;-58
2021/06/29 03:02:39;;;;;;;5.03;2.92;;;21.80;80.20;;;;;;5103009;28;27450;-58
2021/06/29 03:05:24;;;;;;;3.92;2.38;;;21.70;80.20;;;;;;5104427;28;27445;-58
2021/06/29 03:08:08;;;;;;;5.13;2.53;;;21.80;80.00;;;;;;5104923;28;27450;-58
2021/06/29 03:10:52;;;;;;;2.88;2.58;;;21.70;79.80;;;;;;5104912;28;27514;-58
2021/06/29 03:13:37;;;;;;;2.75;2.13;;;21.70;80.20;;;;;;5101595;28;27387;-58
2021/06/29 03:16:21;;;;;;;2.70;2.25;;;21.70;80.00;;;;;;5104561;28;27359;-58
2021/06/29 03:19:06;;;;;;;6.05;2.67;;;21.70;80.30;;;;;;5104201;28;27958;-58
2021/06/29 03:21:50;;;;;;;3.75;2.05;;;21.60;79.90;;;;;;5104450;28;27517;-58
2021/06/29 03:24:35;;;;;;;2.65;1.90;;;21.70;80.20;;;;;;5104756;28;27430;-58
2021/06/29 03:27:19;;;;;;;2.10;1.90;;;21.60;79.50;;;;;;5104729;28;27369;-58
2021/06/29 03:30:05;;;;;;;4.82;2.45;;;21.60;78.90;;;;;;5104315;28;27336;-58
2021/06/29 03:32:50;;;;;;;5.35;2.45;;;21.60;79.00;;;;;;5104069;28;27325;-58
2021/06/29 03:35:34;;;;;;;3.13;2.58;;;21.60;78.30;;;;;;5107983;28;26921;-58
2021/06/29 03:38:19;;;;;;;4.00;2.60;;;21.60;78.70;;;;;;5107829;28;27410;-57
2021/06/29 03:41:03;;;;;;;6.15;2.45;;;21.60;79.20;;;;;;5108120;28;27374;-57
2021/06/29 03:43:48;;;;;;;2.20;2.00;;;21.60;79.30;;;;;;5108130;28;27348;-57
2021/06/29 03:46:32;;;;;;;2.70;2.10;;;21.60;78.90;;;;;;5108133;28;27434;-58
2021/06/29 03:49:17;;;;;;;2.65;1.98;;;21.60;78.80;;;;;;5108057;28;27398;-57
2021/06/29 03:52:02;;;;;;;3.33;2.03;;;21.60;79.50;;;;;;5108023;28;27437;-58
2021/06/29 03:54:46;;;;;;;3.70;2.45;;;21.60;79.20;;;;;;5107900;28;27483;-58
2021/06/29 03:57:31;;;;;;;2.55;2.10;;;21.50;79.10;;;;;;5107727;28;27469;-58
2021/06/29 04:00:16;;;;;;;1.77;1.67;;;21.50;79.10;;;;;;5107885;28;27403;-58
2021/06/29 04:03:00;;;;;;;6.47;2.25;;;21.60;78.90;;;;;;5104410;28;27517;-58
2021/06/29 04:05:45;;;;;;;7.40;2.30;;;21.50;78.80;;;;;;5106494;28;27474;-58
2021/06/29 04:08:29;;;;;;;4.95;1.65;;;21.50;78.10;;;;;;5106534;28;27414;-58
2021/06/29 04:11:14;;;;;;;1.67;1.48;;;21.50;78.50;;;;;;5106711;28;27395;-58
2021/06/29 04:13:58;;;;;;;4.38;2.25;;;21.50;78.30;;;;;;5103322;28;27407;-58
2021/06/29 04:16:43;;;;;;;1.58;1.48;;;21.40;78.10;;;;;;5106613;28;27406;-58
2021/06/29 04:19:27;;;;;;;3.47;1.42;;;21.40;76.70;;;;;;5106084;28;27390;-58
2021/06/29 04:22:12;;;;;;;6.10;1.70;;;21.40;76.30;;;;;;5106248;28;27403;-58
2021/06/29 04:24:57;;;;;;;4.07;1.92;;;21.40;76.00;;;;;;5106422;28;27324;-58
2021/06/29 04:27:42;;;;;;;4.28;1.60;;;21.40;75.90;;;;;;5106432;28;27371;-58
2021/06/29 04:30:26;;;;;;;4.63;1.75;;;21.40;75.90;;;;;;5105771;28;27340;-58
2021/06/29 04:33:10;;;;;;;1.92;1.67;;;21.40;75.90;;;;;;5106307;28;27331;-57
2021/06/29 04:35:55;;;;;;;2.45;1.70;;;21.50;76.50;;;;;;5106269;28;27308;-58
2021/06/29 04:38:40;;;;;;;1.95;1.73;;;21.50;76.90;;;;;;5105752;28;27418;-58
2021/06/29 04:41:25;;;;;;;2.95;1.85;;;21.50;78.20;;;;;;5106200;28;27370;-58
2021/06/29 04:44:09;;;;;;;1.88;1.75;;;21.50;77.70;;;;;;5105757;27;27340;-58
2021/06/29 04:46:55;;;;;;;2.70;2.08;;;21.50;77.20;;;;;;5101999;28;27941;-58
2021/06/29 04:49:40;;;;;;;3.35;1.50;;;21.50;78.50;;;;;;5105664;28;27394;-57
2021/06/29 04:52:25;;;;;;;3.20;1.77;;;21.50;78.80;;;;;;5104987;28;27336;-57
2021/06/29 04:55:10;;;;;;;2.38;1.58;;;21.40;78.20;;;;;;5105634;28;27375;-57
2021/06/29 04:57:55;;;;;;;3.90;2.08;;;21.40;78.60;;;;;;5102122;28;27306;-57
2021/06/29 05:00:44;;;;;;;3.65;1.70;;;21.40;79.00;;;;;;5105503;28;27363;-58
2021/06/29 05:03:29;;;;;;;6.95;2.15;;;21.40;79.10;;;;;;4435662;28;19001919;-57
2021/06/29 05:06:15;;;;;;;2.92;1.60;;;21.40;79.00;;;;;;5106888;28;27410;-58
2021/06/29 05:09:00;;;;;;;3.70;1.70;;;21.40;79.70;;;;;;5106484;28;27608;-58
2021/06/29 05:11:44;;;;;;;5.90;1.95;;;21.40;80.00;;;;;;5105792;28;27348;-57
2021/06/29 05:14:29;;;;;;;3.97;2.80;;;21.40;80.20;;;;;;5106477;28;27411;-58
2021/06/29 05:17:13;;;;;;;5.65;2.13;;;21.40;81.00;;;;;;5106370;28;27337;-58
2021/06/29 05:19:58;;;;;;;3.08;2.05;;;21.40;80.50;;;;;;5105234;28;27402;-57
2021/06/29 05:22:43;;;;;;;2.47;2.08;;;21.40;80.90;;;;;;5106314;28;27441;-58
2021/06/29 05:25:28;;;;;;;3.03;2.00;;;21.40;81.60;;;;;;5106553;28;27416;-57
2021/06/29 05:28:13;;;;;;;2.30;2.10;;;21.40;81.10;;;;;;5106474;28;27508;-58
2021/06/29 05:30:58;;;;;;;3.30;1.80;;;21.40;81.30;;;;;;5106133;28;27521;-57
2021/06/29 05:33:43;;;;;;;5.65;1.98;;;21.40;81.20;;;;;;5106387;28;27395;-57
2021/06/29 05:36:28;;;;;;;5.38;2.10;;;21.40;81.40;;;;;;5105463;28;27412;-57
2021/06/29 05:39:17;;;;;;;4.70;2.58;;;21.40;81.20;;;;;;5105788;28;27829;-60
2021/06/29 05:42:02;;;;;;;2.10;1.90;;;21.50;81.30;;;;;;5105990;28;27386;-58
2021/06/29 05:44:46;;;;;;;3.90;2.45;;;21.50;81.30;;;;;;5106315;28;27318;-58
2021/06/29 05:47:34;;;;;;;4.53;2.38;;;21.50;81.10;;;;;;5102918;28;27300;-57
2021/06/29 05:50:18;;;;;;;2.22;2.10;;;21.50;80.70;;;;;;5105681;28;27409;-58
2021/06/29 05:53:03;;;;;;;8.15;2.50;;;21.50;79.70;;;;;;5105062;28;27335;-57
2021/06/29 05:55:53;;;;;;;6.63;2.55;;;21.60;79.90;;;;;;5105903;27;27394;-57
2021/06/29 05:58:38;;;;;;;2.42;2.13;;;21.60;80.10;;;;;;5105391;28;27512;-57
2021/06/29 06:01:23;;;;;;;5.78;2.28;;;21.60;79.70;;;;;;5105922;28;27458;-57
2021/06/29 06:04:07;;;;;;;4.68;2.10;;;21.60;79.70;;;;;;5104898;28;27490;-58
2021/06/29 06:06:51;;;;;;;2.92;2.10;;;21.70;80.00;;;;;;5105948;28;27526;-57
2021/06/29 06:09:36;;;;;;;2.25;2.05;;;21.70;79.70;;;;;;5104780;28;27465;-57
2021/06/29 06:12:20;;;;;;;3.65;2.47;;;21.70;79.90;;;;;;5105477;28;27414;-57
2021/06/29 06:15:06;;;;;;;2.15;1.90;;;21.80;79.90;;;;;;5105679;28;27604;-57
2021/06/29 06:17:51;;;;;;;5.72;2.60;;;21.80;80.00;;;;;;5101635;28;27379;-57
2021/06/29 06:20:36;;;;;;;3.58;2.28;;;21.90;80.20;;;;;;5105407;28;27591;-57
2021/06/29 06:23:21;;;;;;;3.35;2.45;;;21.90;80.00;;;;;;5105268;28;27456;-57
2021/06/29 06:26:05;;;;;;;4.38;2.53;;;22.00;80.00;;;;;;5105218;28;27419;-58
2021/06/29 06:28:50;;;;;;;4.25;2.35;;;22.10;79.90;;;;;;5105551;28;27436;-58
2021/06/29 06:31:34;;;;;;;3.13;2.45;;;22.10;80.00;;;;;;5105459;28;27384;-58
2021/06/29 06:34:19;;;;;;;4.43;2.63;;;22.30;80.20;;;;;;5105369;28;27859;-58
2021/06/29 06:37:04;;;;;;;4.63;2.25;;;22.40;80.30;;;;;;5105111;28;27426;-58
2021/06/29 06:39:48;;;;;;;2.45;2.25;;;22.70;80.30;;;;;;5104838;28;27438;-58
2021/06/29 06:42:33;;;;;;;3.60;2.00;;;22.90;79.60;;;;;;5104666;28;26937;-58
2021/06/29 06:45:22;;;;;;;3.53;2.35;;;23.10;79.20;;;;;;5104963;28;27437;-58
2021/06/29 06:48:08;;;;;;;2.85;2.50;;;23.40;79.10;;;;;;5104469;28;27344;-58
2021/06/29 06:50:52;;;;;;;2.80;1.80;;;23.60;78.70;;;;;;5104507;28;27426;-58
2021/06/29 06:53:37;;;;;;;3.28;2.50;;;23.90;78.30;;;;;;5105183;28;27438;-58
2021/06/29 06:56:22;;;;;;;4.97;2.15;;;24.00;77.90;;;;;;5101076;28;27403;-58
2021/06/29 06:59:07;;;;;;;1.90;1.80;;;24.20;77.70;;;;;;5101580;28;27442;-57
2021/06/29 07:01:51;;;;;;;5.53;2.63;;;24.40;77.60;;;;;;5104187;28;27457;-58
2021/06/29 07:04:35;;;;;;;5.80;2.17;;;24.60;70.00;;;;;;5104676;28;27479;-58
2021/06/29 07:07:20;;;;;;;4.03;1.92;;;24.70;70.10;;;;;;5104619;28;27977;-58
2021/06/29 07:10:06;;;;;;;3.28;1.90;;;24.90;71.50;;;;;;5104205;28;27427;-58
2021/06/29 07:12:50;;;;;;;4.80;1.65;;;25.10;72.10;;;;;;5104929;28;27486;-58
2021/06/29 07:15:34;;;;;;;3.55;1.77;;;25.20;72.50;;;;;;5104845;28;27393;-58
2021/06/29 07:18:19;;;;;;;2.67;1.80;;;25.30;72.60;;;;;;5104456;28;27599;-58
2021/06/29 07:21:04;;;;;;;7.30;2.35;;;25.40;73.20;;;;;;5104426;28;27449;-59
2021/06/29 07:23:48;;;;;;;3.05;1.38;;;25.60;73.20;;;;;;5104811;28;27458;-58
2021/06/29 07:26:33;;;;;;;3.13;1.35;;;25.80;72.80;;;;;;5104398;28;27433;-58
2021/06/29 07:29:18;;;;;;;1.73;1.13;;;25.90;72.30;;;;;;5101078;28;28049;-58
2021/06/29 07:32:04;;;;;;;0.90;0.90;;;26.10;72.10;;;;;;5104390;28;27363;-58
2021/06/29 07:34:49;;;;;;;2.30;1.40;;;26.30;71.80;;;;;;5104673;28;27518;-58
2021/06/29 07:37:33;;;;;;;1.13;1.00;;;26.20;71.50;;;;;;5104035;28;27324;-58
2021/06/29 07:40:17;;;;;;;2.15;1.38;;;26.10;70.90;;;;;;5104176;28;27968;-59
2021/06/29 07:43:02;;;;;;;1.20;1.10;;;25.80;72.10;;;;;;5104251;28;27333;-58
2021/06/29 07:45:47;;;;;;;5.90;1.33;;;25.60;72.60;;;;;;5104575;28;27324;-59
2021/06/29 07:48:31;;;;;;;1.98;1.23;;;25.70;73.40;;;;;;5100187;28;27402;-59
2021/06/29 07:51:16;;;;;;;2.65;1.10;;;25.80;73.10;;;;;;5104390;28;27340;-59
2021/06/29 07:54:00;;;;;;;1.15;1.05;;;25.90;72.90;;;;;;5104138;28;27338;-59
2021/06/29 07:56:45;;;;;;;3.00;1.27;;;26.00;72.00;;;;;;5104082;28;26945;-59
2021/06/29 07:59:30;;;;;;;1.38;1.02;;;26.30;71.70;;;;;;5103768;28;27385;-59
2021/06/29 08:02:14;;;;;;;2.55;1.08;;;26.60;71.40;;;;;;5103557;28;27424;-59
2021/06/29 08:04:59;;;;;;;1.58;0.80;;;26.90;70.50;;;;;;5103073;28;27559;-59
2021/06/29 08:07:43;;;;;;;1.70;1.20;;;27.20;67.10;;;;;;5104138;28;27430;-59
2021/06/29 08:10:28;;;;;;;1.90;1.67;;;27.40;67.30;;;;;;5100864;28;27370;-59
2021/06/29 08:13:12;;;;;;;3.13;1.38;;;27.70;66.20;;;;;;5103097;28;27423;-59
2021/06/29 08:15:57;;;;;;;2.15;1.08;;;27.90;65.60;;;;;;5104060;28;27487;-59
2021/06/29 08:18:42;;;;;;;1.40;1.15;;;28.10;65.80;;;;;;5103756;28;27441;-59
2021/06/29 08:21:27;;;;;;;0.77;0.75;;;28.40;66.20;;;;;;5106819;28;27415;-59
2021/06/29 08:24:12;;;;;;;1.75;1.13;;;28.70;65.60;;;;;;5107545;28;27977;-59
2021/06/29 08:26:57;;;;;;;1.38;1.10;;;28.90;64.60;;;;;;5107149;28;27462;-59
2021/06/29 08:29:42;;;;;;;3.17;1.17;;;29.20;63.70;;;;;;5107482;28;27417;-59
2021/06/29 08:32:27;;;;;;;1.40;1.08;;;29.40;63.30;;;;;;5107112;28;27457;-59
2021/06/29 08:35:12;;;;;;;0.90;0.77;;;29.60;63.10;;;;;;5107365;28;27463;-59
2021/06/29 08:37:57;;;;;;;1.05;0.80;;;29.80;63.10;;;;;;5107273;28;27471;-59
2021/06/29 08:40:42;;;;;;;1.55;1.10;;;30.10;62.30;;;;;;5107056;28;26891;-59
2021/06/29 08:43:26;;;;;;;3.40;1.13;;;30.20;61.90;;;;;;5106936;28;27465;-59
2021/06/29 08:46:11;;;;;;;5.15;1.20;;;30.50;62.10;;;;;;5106052;28;27439;-60
2021/06/29 08:48:56;;;;;;;2.28;1.10;;;30.60;60.80;;;;;;5106739;28;27407;-60
2021/06/29 08:51:40;;;;;;;2.38;0.90;;;30.70;59.40;;;;;;5107138;28;27454;-60
2021/06/29 08:54:25;;;;;;;1.02;0.90;;;30.70;57.70;;;;;;5103496;28;27477;-60
2021/06/29 08:57:10;;;;;;;3.38;1.00;;;30.80;58.50;;;;;;5105921;28;27489;-60
2021/06/29 08:59:56;;;;;;;1.70;1.10;;;30.80;57.50;;;;;;5105951;28;27492;-59
2021/06/29 09:02:42;;;;;;;0.93;0.93;;;30.90;56.50;;;;;;5106150;28;27399;-60
2021/06/29 09:05:28;;;;;;;1.38;1.10;;;31.00;58.80;;;;;;5103575;28;27453;-60
2021/06/29 09:08:16;;;;;;;1.08;0.98;;;31.20;58.70;;;;;;5102754;28;27412;-60
2021/06/29 09:11:18;;;;;;;2.53;1.13;;;31.30;58.60;;;;;;5106064;28;27475;-60
2021/06/29 09:14:09;;;;;;;1.15;1.00;;;31.30;58.70;;;;;;5106783;28;27446;-60
2021/06/29 09:17:20;;;;;;;1.17;1.00;;;31.50;58.70;;;;;;5106396;28;27408;-60
2021/06/29 09:20:05;;;;;;;1.15;1.02;;;31.80;58.30;;;;;;5105984;28;27398;-60
2021/06/29 09:22:50;;;;;;;1.42;0.88;;;32.00;58.80;;;;;;5106585;28;27362;-60
2021/06/29 09:25:35;;;;;;;1.33;1.10;;;32.20;57.00;;;;;;5106604;28;27336;-60
2021/06/29 09:28:21;;;;;;;2.72;0.88;;;32.10;56.20;;;;;;5105126;28;27369;-60
2021/06/29 09:31:09;;;;;;;3.58;1.10;;;32.20;56.40;;;;;;5105207;27;27352;-61
2021/06/29 09:33:59;;;;;;;2.97;1.10;;;32.20;57.50;;;;;;5106144;28;27480;-60
2021/06/29 09:36:44;;;;;;;7.78;1.20;;;32.20;56.00;;;;;;5106393;28;27373;-60
2021/06/29 09:39:28;;;;;;;1.55;0.98;;;32.20;55.50;;;;;;5106090;28;27513;-60
2021/06/29 09:42:13;;;;;;;0.80;0.80;;;32.00;55.50;;;;;;5105951;28;27865;-60
2021/06/29 09:44:57;;;;;;;2.92;0.80;;;31.90;55.90;;;;;;5105951;28;27458;-60
2021/06/29 09:47:45;;;;;;;2.25;1.10;;;31.80;56.80;;;;;;5105240;28;27453;-60
2021/06/29 09:50:48;;;;;;;1.25;0.75;;;32.00;57.20;;;;;;5105901;28;27378;-60
2021/06/29 09:53:35;;;;;;;0.98;0.90;;;32.20;57.50;;;;;;5105927;28;27461;-60
2021/06/29 09:56:25;;;;;;;3.10;1.02;;;32.20;56.60;;;;;;5105307;28;27631;-61
2021/06/29 09:59:17;;;;;;;2.15;1.20;;;32.00;55.50;;;;;;5104882;28;27455;-61
2021/06/29 10:02:08;;;;;;;1.88;1.00;;;31.70;55.70;;;;;;5105108;28;27668;-60
2021/06/29 10:05:19;;;;;;;3.63;1.30;;;31.30;57.40;;;;;;5105658;28;27454;-61
2021/06/29 10:08:05;;;;;;;0.95;0.90;;;30.90;57.90;;;;;;5102288;28;27332;-60
2021/06/29 10:10:49;;;;;;;1.40;1.05;;;30.50;58.40;;;;;;5105672;28;27458;-60
2021/06/29 10:13:41;;;;;;;1.20;1.08;;;30.40;59.00;;;;;;5104721;28;27557;-60
2021/06/29 10:16:30;;;;;;;1.00;1.00;;;30.20;59.40;;;;;;5105444;28;27318;-60
2021/06/29 10:19:47;;;;;;;1.40;0.95;;;30.10;59.30;;;;;;5105182;28;27398;-60
2021/06/29 10:22:32;;;;;;;0.90;0.90;;;30.30;59.50;;;;;;5105546;28;27481;-60
2021/06/29 10:25:16;;;;;;;1.40;1.00;;;30.60;59.70;;;;;;5104934;28;27478;-60
2021/06/29 10:28:01;;;;;;;1.48;1.10;;;30.80;58.70;;;;;;5104902;28;27927;-61
2021/06/29 10:30:45;;;;;;;2.60;1.17;;;31.00;58.30;;;;;;5104756;28;27372;-61
2021/06/29 10:33:30;;;;;;;1.30;1.08;;;31.10;58.20;;;;;;5105526;28;27410;-61
2021/06/29 10:36:15;;;;;;;2.67;1.10;;;31.10;57.90;;;;;;5104708;28;27466;-60
2021/06/29 10:39:00;;;;;;;1.17;1.05;;;31.20;58.00;;;;;;5105175;28;27524;-61
2021/06/29 10:41:48;;;;;;;1.70;1.10;;;31.40;58.40;;;;;;5105014;28;27544;-61
2021/06/29 10:44:40;;;;;;;1.75;1.10;;;31.40;58.20;;;;;;5104804;28;27469;-61
2021/06/29 10:47:29;;;;;;;1.35;1.23;;;31.40;57.80;;;;;;5101702;28;27453;-61
2021/06/29 10:50:16;;;;;;;1.58;1.23;;;31.40;57.60;;;;;;5104850;28;27915;-61
2021/06/29 10:53:01;;;;;;;1.10;1.00;;;31.30;58.20;;;;;;5104942;28;27427;-60
2021/06/29 10:55:51;;;;;;;3.00;0.80;;;31.30;58.00;;;;;;5104182;28;27425;-60
2021/06/29 10:58:46;;;;;;;0.88;0.88;;;31.30;58.20;;;;;;5103915;28;27415;-61
2021/06/29 11:01:36;;;;;;;2.65;1.20;;;31.60;59.10;;;;;;5104738;28;27954;-65
2021/06/29 11:05:01;;;;;;;2.20;0.98;;;31.80;58.80;;;;;;5105030;28;27398;-62
2021/06/29 11:07:51;;;;;;;1.80;1.05;;;31.70;57.80;;;;;;5104130;28;27369;-61
2021/06/29 11:10:44;;;;;;;1.40;1.20;;;31.60;57.70;;;;;;5103921;28;27431;-61
2021/06/29 11:13:45;;;;;;;1.98;0.90;;;31.40;57.30;;;;;;5104060;28;27836;-63
2021/06/29 11:16:58;;;;;;;1.33;0.90;;;31.30;57.40;;;;;;5104718;28;27399;-61
2021/06/29 11:20:12;;;;;;;1.52;1.02;;;31.10;57.00;;;;;;5103351;28;27385;-61
2021/06/29 11:23:32;;;;;;;;;;;;;;;;;;;;;
2021/06/29 11:26:43;;;;;;;1.95;1.00;;;30.80;58.60;;;;;;5047046;28;27490;-60
2021/06/29 11:29:41;;;;;;;2.03;1.05;;;30.70;58.10;;;;;;5032117;28;27551;-61
2021/06/29 11:32:36;;;;;;;1.25;1.10;;;30.60;58.00;;;;;;5034707;28;27420;-61
2021/06/29 11:36:10;;;;;;;1.05;0.70;;;30.70;58.10;;;;;;5062381;28;27430;-60
2021/06/29 11:39:29;;;;;;;5.00;1.25;;;30.70;58.40;;;;;;5061893;28;27612;-64
2021/06/29 11:42:32;;;;;;;1.17;0.88;;;30.90;58.90;;;;;;5062109;28;27505;-61
2021/06/29 11:45:32;;;;;;;3.38;0.82;;;31.00;59.70;;;;;;5035680;28;27372;-61
2021/06/29 11:48:51;;;;;;;1.70;1.17;;;31.30;59.50;;;;;;5020803;28;27564;-64
2021/06/29 11:51:58;;;;;;;1.17;1.08;;;31.40;58.60;;;;;;5034923;28;27928;-61
2021/06/29 11:55:18;;;;;;;1.40;0.98;;;31.40;58.30;;;;;;5062481;28;27450;-61
2021/06/29 11:58:14;;;;;;;1.10;1.00;;;31.30;57.20;;;;;;5051035;28;27529;-62
2021/06/29 12:01:08;;;;;;;2.10;1.10;;;31.20;57.30;;;;;;5034229;28;27356;-62
2021/06/29 12:04:09;;;;;;;1.33;0.88;;;31.00;57.90;;;;;;5064524;28;27597;-60
2021/06/29 12:10:53;;;;;;;1.30;0.90;;;30.80;57.60;;;;;;5065458;28;27445;-61
2021/06/29 12:13:48;;;;;;;1.30;0.90;;;30.70;57.70;;;;;;5051877;28;27491;-60
2021/06/29 12:16:39;;;;;;;4.10;0.90;;;30.60;57.40;;;;;;5061928;28;27844;-62
2021/06/29 12:19:34;;;;;;;4.18;1.15;;;30.60;57.50;;;;;;5050489;28;27454;-61
2021/06/29 12:22:30;;;;;;;1.40;0.80;;;30.50;57.00;;;;;;5047744;28;27516;-61
2021/06/29 12:25:31;;;;;;;1.60;0.98;;;30.30;57.00;;;;;;5065016;28;27525;-60
2021/06/29 12:28:22;;;;;;;1.55;1.45;;;30.20;57.00;;;;;;5045080;28;27841;-61
2021/06/29 12:31:14;;;;;;;1.88;1.30;;;30.00;57.00;;;;;;5106788;28;27435;-62
2021/06/29 12:34:08;;;;;;;4.35;0.85;;;29.80;56.70;;;;;;5103224;28;27383;-61
2021/06/29 12:37:05;;;;;;;6.88;0.85;;;29.70;50.90;;;;;;5107528;28;27462;-60
2021/06/29 12:40:06;;;;;;;4.65;0.52;;;29.40;47.80;;;;;;5078400;28;27486;-60
2021/06/29 12:42:58;;;;;;;1.30;0.32;;;29.20;47.20;;;;;;5089779;28;27540;-63
2021/06/29 12:45:49;;;;;;;1.70;0.55;;;28.90;47.10;;;;;;5089400;28;27336;-62
2021/06/29 12:48:37;;;;;;;3.90;0.82;;;28.70;48.60;;;;;;5107216;28;27449;-64
2021/06/29 12:51:28;;;;;;;3.15;0.43;;;28.40;49.10;;;;;;5107101;28;27360;-65
2021/06/29 12:54:25;;;;;;;3.20;0.70;;;28.20;50.10;;;;;;5078683;28;27415;-64
2021/06/29 12:57:18;;;;;;;2.45;0.70;;;27.90;49.30;;;;;;5106154;28;27476;-66
2021/06/29 13:00:13;;;;;;;2.78;0.80;;;27.60;49.90;;;;;;5092364;28;27521;-64
2021/06/29 13:03:22;;;;;;;4.32;1.02;;;27.40;51.20;;;;;;5090646;28;27439;-64
2021/06/29 13:06:28;;;;;;;3.78;0.68;;;27.20;52.30;;;;;;5106070;27;27485;-64
2021/06/29 13:09:17;;;;;;;2.00;1.38;;;26.90;52.50;;;;;;5106324;28;27421;-64
2021/06/29 13:12:18;;;;;;;1.70;0.90;;;26.70;53.20;;;;;;5105976;28;27404;-61
2021/06/29 13:15:14;;;;;;;1.05;0.60;;;26.60;54.40;;;;;;5106597;28;27347;-63
2021/06/29 13:18:02;;;;;;;1.40;0.40;;;26.40;54.70;;;;;;5088728;28;27382;-62
2021/06/29 13:20:52;;;;;;;2.70;0.52;;;26.20;55.30;;;;;;5091738;28;27339;-62
2021/06/29 13:24:02;;;;;;;1.25;0.55;;;26.00;55.50;;;;;;5106802;28;27473;-61
2021/06/29 13:27:01;;;;;;;2.45;0.60;;;25.80;55.00;;;;;;5106043;28;27348;-60
2021/06/29 13:30:09;;;;;;;1.30;0.50;;;25.70;56.00;;;;;;5103343;28;27442;-62
2021/06/29 13:33:03;;;;;;;3.55;0.40;;;25.50;56.30;;;;;;5102760;28;27390;-64
2021/06/29 13:35:54;;;;;;;1.58;0.60;;;25.50;56.30;;;;;;5106096;28;27324;-62
2021/06/29 13:38:54;;;;;;;1.85;0.38;;;25.30;56.90;;;;;;5105516;28;27401;-63
2021/06/29 13:41:44;;;;;;;4.78;0.50;;;25.20;57.00;;;;;;5091893;28;27329;-61
2021/06/29 13:44:32;;;;;;;2.20;0.57;;;25.10;57.60;;;;;;5106376;28;27497;-65
2021/06/29 13:47:32;;;;;;;4.50;0.43;;;25.00;57.90;;;;;;5077309;28;27424;-63
2021/06/29 13:50:20;;;;;;;13.75;1.83;;;24.90;58.40;;;;;;5102934;28;27320;-64
2021/06/29 13:53:10;;;;;;;3.85;0.80;;;24.80;60.10;;;;;;5101865;28;27502;-63
2021/06/29 13:56:07;;;;;;;3.13;1.05;;;24.70;61.40;;;;;;5105468;28;27335;-67
2021/06/29 13:58:54;;;;;;;2.63;0.70;;;24.60;61.80;;;;;;5105073;28;27390;-64
2021/06/29 14:01:43;;;;;;;2.15;0.73;;;24.60;60.70;;;;;;5106052;28;27456;-64
2021/06/29 14:04:49;;;;;;;2.05;0.60;;;24.40;62.10;;;;;;5068562;28;27320;-63
2021/06/29 14:07:37;;;;;;;3.22;1.30;;;24.20;62.00;;;;;;5084848;28;27352;-63
2021/06/29 14:10:28;;;;;;;5.07;1.70;;;24.10;63.30;;;;;;5067570;28;27395;-63
2021/06/29 14:13:26;;;;;;;2.17;0.80;;;24.00;65.00;;;;;;5071063;28;27449;-63
2021/06/29 14:16:16;;;;;;;3.42;1.08;;;23.80;63.40;;;;;;5084734;28;27367;-62
2021/06/29 14:19:07;;;;;;;2.53;1.10;;;23.70;67.80;;;;;;5083436;28;27465;-62
2021/06/29 14:21:58;;;;;;;2.33;1.13;;;23.60;67.80;;;;;;5070898;28;27337;-62
2021/06/29 14:24:49;;;;;;;1.13;0.47;;;23.50;69.40;;;;;;5084221;28;27829;-62
2021/06/29 14:27:39;;;;;;;3.20;1.30;;;23.40;71.00;;;;;;5067180;28;27683;-62
2021/06/29 14:30:27;;;;;;;3.25;0.85;;;23.30;70.90;;;;;;5085245;28;27327;-62
2021/06/29 14:33:16;;;;;;;2.85;1.77;;;23.30;71.70;;;;;;5083854;28;27374;-62
2021/06/29 14:36:14;;;;;;;3.20;2.63;;;23.20;71.90;;;;;;5084029;28;27460;-62
2021/06/29 14:39:01;;;;;;;1.50;1.20;;;23.20;72.60;;;;;;5084037;28;27469;-60
2021/06/29 14:41:49;;;;;;;4.68;1.00;;;23.10;72.10;;;;;;5067288;28;27378;-60